Tiempo atmosférico en la estación meteorológica de Barcelona Aeropuerto, Barcelona (4 m.)

Fecha
DESCASC
Temp. máxima en grados centígrados (hora)
DESCASC
Temp. mínima en grados centígrados (hora)
DESCASC
Temp. media en grados centígrados
DESCASC
Racha de viento máxima en m/sg (hora)
DESCASC
Velocidad máxima media en intervalos de 10 minutos(hora)
DESCASC
Precipitaciones diarias en mm
DESCASC
Precipitaciones de 00:00 a 06:00 en mm
DESCASC
Precipitaciones de 06:00 a 12:00 en mm
DESCASC
Precipitaciones de 12:00 a 18:00 en mm
DESCASC
Precipitaciones de 18:00 a 24:00 en mm
DESCASC
21-08-2017 29.8 (16:50) 22.1 (07:10) 25.9 8.89 (16:00) 5.56 (14:00) 0 0 0 0 0
20-08-2017 28.2 (14:30) 24.1 (07:30) 26.2 8.33 (15:20) 5.28 (16:50) 0.4 0 0.4 0 0
19-08-2017 28.8 (15:20) 25.2 (04:50) 27 9.17 (16:00) 6.39 (10:40) 0 0 0 0 0
18-08-2017 30.2 (14:00) 23.3 (06:40) 26.8 10.83 (14:50) 8.61 (12:40) 0 0 0 0 0
17-08-2017 30.2 (10:50) 23.1 (00:00) 26.7 9.17 (14:50) 7.22 (15:10) 0 0 0 0 0
16-08-2017 28.7 (13:00) 24.4 (00:00) 26.6 8.89 (04:30) 7.22 (04:40) 0 0 0 0 0
15-08-2017 28.7 (17:00) 20.8 (00:00) 24.8 8.89 (12:30) 6.39 (12:40) 0 0 0 0 0
14-08-2017 28.7 (16:00) 20.8 (07:10) 24.8 9.72 (10:40) 7.5 (12:20) 0 0 0 0 0
13-08-2017 28.5 (15:10) 20 (00:00) 24.3 8.33 (16:20) 5.83 (16:00) 0 0 0 0 0
12-08-2017 27.4 (15:50) 20.1 (00:00) 23.8 8.33 (15:00) 5 (17:10) 0.5 0.5 0 0 0
11-08-2017 26.1 (16:20) 18.4 (00:00) 22.3 11.39 (08:30) 8.33 (08:30) 0 0 0 0 0
10-08-2017 26.9 (16:10) 17 (00:00) 21.9 13.33 (20:40) 9.72 (21:30) 0.6 0.6 0 0 0
09-08-2017 27 (15:00) 18.7 (00:00) 22.9 15 (21:00) 6.39 (18:00) 1.9 0 0 0 1.9
08-08-2017 30.2 (10:50) 24.7 (00:00) 27.5 19.72 (11:10) 13.61 (11:10) 1.1 0 0 1.1 0
07-08-2017 30.8 (15:10) 24 (00:00) 27.4 9.17 (12:40) 5.83 (13:00) 0 0 0 0 0
06-08-2017 31.3 (11:00) 26 (00:00) 28.6 8.33 (16:20) 6.11 (15:50) 0 0 0 0 0
05-08-2017 33.4 (13:10) 26.1 (00:00) 29.8 10.28 (14:00) 8.06 (17:10) 0 0 0 0 0
04-08-2017 33 (14:20) 24.9 (00:00) 28.9 11.39 (21:10) 6.67 (16:20) 0 0 0 0 0
03-08-2017 34.3 (10:50) 25.6 (00:00) 29.9 9.17 (11:10) 6.94 (12:10) 0 0 0 0 0
02-08-2017 32.3 (17:30) 24.4 (00:00) 28.3 13.89 (01:50) 7.78 (13:20) 0 0 0 0 0
01-08-2017 29.7 (14:10) 25.8 (00:00) 27.8 12.78 (15:50) 8.06 (15:00) 0 0 0 0 0
31-07-2017 29.7 (16:10) 25.1 (00:00) 27.4 15 (18:40) 9.17 (10:30) 0 0 0 0 0
30-07-2017 31 (13:40) 22.8 (00:00) 26.9 8.89 (18:20) 6.67 (18:30) 0 0 0 0 0
29-07-2017 29.6 (16:00) 22.4 (00:00) 26 8.33 (12:50) 4.72 (13:00) 0 0 0 0 0
28-07-2017 29.9 (14:20) 23.7 (00:00) 26.8 11.39 (14:20) 6.67 (14:20) 0 0 0 0 0
27-07-2017 29.5 (17:50) 20.6 (00:00) 25.1 10.28 (17:10) 7.78 (17:20) 0 0 0 0 0
26-07-2017 27.6 (16:40) 21.1 (00:00) 24.4 12.78 (08:40) 6.67 (09:20) 0 0 0 0 0
25-07-2017 28 (13:20) 22 (00:00) 25 10.83 (15:30) 7.78 (16:00) 0 0 0 0 0
24-07-2017 29.5 (15:40) 20.6 (00:00) 25.1 12.5 (03:20) 8.89 (18:30) 0.2 0.2 0 0 0
23-07-2017 28.7 (10:10) 19.9 (00:00) 24.3 18.61 (19:00) 10 (19:00) 2.7 0 0 0 2.7

Gráficas

Temp. máximas Temp. mínimas Temp. medias Precipitaciones Rachas de viento máximas Velocidades máximas media en intervalos de 10 minutos

Datos horarios

Fecha y hora oficial Temperatura (ºC) Velocidad del viento (km/h) Dirección del viento Racha (km/h) Dirección de racha Precipitación (mm) Presión (hPa) Tendencia (hPa) Humedad (%)
2017-08-21 23:00:00 26.1 7 Sur 17 Sur 0 1018.1 0.6 71
2017-08-21 22:00:00 26.1 9 Sudeste 18 Sur 0 1018.1 0.5 68
2017-08-21 21:00:00 26.3 11 Sudeste 18 Sudeste 0 1017.9 0.1 67
2017-08-21 20:00:00 26.9 14 Sudeste 22 Sur 0 1017.5 -0.4 64
2017-08-21 19:00:00 27.9 11 Sur 24 Sudoeste 0 1017.6 -0.6 67
2017-08-21 18:00:00 28.6 14 Sur 24 Sudoeste 0 1017.8 -1 64
2017-08-21 17:00:00 29.5 16 Sudoeste 26 Sudoeste 0 1017.9 -1 62
2017-08-21 16:00:00 29.1 19 Sudoeste 32 Sudoeste 0 1018.2 -1.2 63
2017-08-21 15:00:00 29.2 17 Sur 26 Sur 0 1018.8 -0.9 64
2017-08-21 14:00:00 28.6 20 Sur 26 Sur 0 1018.9 -1.1 66
2017-08-21 13:00:00 28.1 15 Sur 24 Sur 0 1019.4 -0.6 68
2017-08-21 12:00:00 28 14 Sur 21 Sur 0 1019.7 -0.3 67
2017-08-21 11:00:00 28.2 7 Sur 15 Sur 0 1020 0.1 63
2017-08-21 10:00:00 26.3 13 Norte 21 Norte 0 1020 0.5 65
2017-08-21 09:00:00 24.2 14 Norte 21 Norte 0 1020 0.4 73
2017-08-21 08:00:00 22.8 14 Norte 18 Norte 0 1019.9 0 81
2017-08-21 07:00:00 22.2 14 Norte 18 Norte 0 1019.5 -0.6 84
2017-08-21 06:00:00 22.5 10 Norte 15 Norte 0 1019.6 -0.6 85
2017-08-21 05:00:00 22.6 12 Norte 17 Norte 0 1019.9 -0.4 83
2017-08-21 04:00:00 22.7 3 Norte 11 Norte 0 1020.1 -0.3 83
2017-08-21 03:00:00 23.3 8 Norte 11 Norte 0 1020.2 -0.1 81
2017-08-21 02:00:00 23.8 6 Norte 11 Norte 0 1020.3 0 80
2017-08-21 01:00:00 24 6 Noroeste 8 Noroeste 0 1020.4 0.2 80
2017-08-21 00:00:00 24.8 6 Oeste 13 Sudoeste 0 1020.3 0.7 77
2017-08-20 23:00:00 25.9 11 Sudoeste 17 Sudoeste 0 1020.3 1.2 74
2017-08-20 22:00:00 26 11 Sudoeste 18 Sudoeste 0 1020.2 1 70
2017-08-20 21:00:00 26 13 Sudoeste 22 Sudoeste 0 1019.6 0 71
2017-08-20 20:00:00 26 16 Sudoeste 26 Sudoeste 0 1019.1 -0.6 69
2017-08-20 19:00:00 27.2 15 Sudoeste 28 Sur 0 1019.2 -0.9 65
2017-08-20 18:00:00 27.5 19 Sudoeste 28 Sudoeste 0 1019.6 -0.8 63
2017-08-20 17:00:00 27.6 16 Sur 28 Sudoeste 0 1019.7 -0.9 62
2017-08-20 16:00:00 27.5 16 Sur 30 Sudoeste 0 1020.1 -1 61
2017-08-20 15:00:00 26.8 15 Sur 26 Sur 0 1020.4 -0.9 62
2017-08-20 14:00:00 26.2 16 Sur 24 Sur 0 1020.6 -0.2 65
2017-08-20 13:00:00 25.8 10 Sur 21 Sur 0 1021.1 0.6 68
2017-08-20 12:00:00 24.7 13 Este 26 Sudeste 0.4 1021.3 1 73
2017-08-20 11:00:00 25.6 17 Sudeste 28 Sudeste 0 1020.8 1.1 69
2017-08-20 10:00:00 26 6 Sudeste 11 Norte 0 1020.5 1 69
2017-08-20 09:00:00 25.6 7 Norte 9 Norte 0 1020.3 1.3 72
2017-08-20 08:00:00 24.6 3 Norte -- -- 0 1019.7 0.5 75
2017-08-20 07:00:00 24.6 6 Noroeste 11 Sudoeste 0 1019.5 0.4 75
2017-08-20 06:00:00 25.3 9 Sudoeste 13 Sudoeste 0 1019 -0.2 72
2017-08-20 05:00:00 25 8 Sudoeste 13 Sudoeste 0 1019.2 -0.3 74
2017-08-20 04:00:00 25.3 9 Sudoeste 13 Sudoeste 0 1019.1 -0.8 72
2017-08-20 03:00:00 25 9 Sudoeste 13 Sudoeste 0 1019.2 -0.6 73
2017-08-20 02:00:00 25 7 Sudoeste 13 Sudoeste 0 1019.5 -0.1 74
2017-08-20 01:00:00 25.1 8 Sudoeste 15 Sur 0 1019.9 0.7 73
2017-08-20 00:00:00 25.4 8 Sudoeste 17 Sudoeste 0 1019.8 1.1 73
2017-08-19 23:00:00 25.8 9 Sur 17 Sur 0 1019.6 1.3 70
2017-08-19 22:00:00 25.9 12 Sur 17 Sur 0 1019.2 1.1 70
2017-08-19 21:00:00 25.8 11 Sur 22 Sur 0 1018.7 0.8 71
2017-08-19 20:00:00 26.1 13 Sur 21 Sudoeste 0 1018.3 0.4 69
2017-08-19 19:00:00 26.6 14 Sur 28 Sudoeste 0 1018.1 0.1 68
2017-08-19 18:00:00 27.4 19 Sur 28 Sudoeste 0 1017.9 -0.9 65
2017-08-19 17:00:00 27.9 21 Sur 30 Sur 0 1017.9 -0.7 63
2017-08-19 16:00:00 28.5 20 Sudoeste 33 Sur 0 1018 -0.8 61
2017-08-19 15:00:00 28.2 16 Sur 24 Sudoeste 0 1018.8 -0.2 62
2017-08-19 14:00:00 27.9 15 Sur 26 Sudoeste 0 1018.6 0.1 61
2017-08-19 13:00:00 27.1 12 Sudeste 18 Sur 0 1018.8 0.7 64
2017-08-19 12:00:00 26.8 14 Sudeste 28 Sudeste 0 1019 1 65
2017-08-19 11:00:00 26.4 16 Sudeste 30 Sudeste 0 1018.5 1.3 72
2017-08-19 10:00:00 27.3 14 Sur 21 Sur 0 1018.1 0.9 70
2017-08-19 09:00:00 27.4 12 Sur 17 Sur 0 1018 1.3 68
2017-08-19 08:00:00 26.1 5 Oeste 13 Nordeste 0 1017.2 0.9 78
2017-08-19 07:00:00 25.5 6 Norte 13 Norte 0 1017.2 0.9 80
2017-08-19 06:00:00 25.3 10 Norte 13 Norte 0 1016.7 0.4 79
2017-08-19 05:00:00 25.2 5 Norte 8 Norte 0 1016.3 0.2 83
2017-08-19 04:00:00 25.5 5 Noroeste 9 Oeste 0 1016.3 0 84
2017-08-19 03:00:00 26.6 5 Sur 13 Este 0 1016.3 0 80
2017-08-19 02:00:00 26.6 12 Este 18 Este 0 1016.1 0.1 82
2017-08-19 01:00:00 26.7 10 Este 15 Este 0 1016.3 0.5 80
2017-08-19 00:00:00 26.8 12 Este 15 Este 0 1016.3 1.7 80
2017-08-18 23:00:00 27.1 12 Sur 21 Sudoeste 0 1016 2.2 80
2017-08-18 22:00:00 27 6 Sur 17 Sudoeste 0 1015.8 1.9 80
2017-08-18 21:00:00 27.2 14 Sudoeste 28 Sudoeste 0 1014.6 0.3 79
2017-08-18 20:00:00 27.6 20 Sudoeste 33 Sudoeste 0 1013.8 -0.4 78
2017-08-18 19:00:00 28.5 26 Sudoeste 35 Sudoeste 0 1013.9 -0.6 73
2017-08-18 18:00:00 29 28 Sudoeste 35 Sudoeste 0 1014.3 -0.6 69
2017-08-18 17:00:00 29.3 26 Sudoeste 35 Sudoeste 0 1014.2 -1.1 68
2017-08-18 16:00:00 29.4 25 Sudoeste 35 Sudoeste 0 1014.5 -1.2 65
2017-08-18 15:00:00 29.3 28 Sudoeste 39 Sudoeste 0 1014.9 -1 65
2017-08-18 14:00:00 29.7 25 Sudoeste 37 Sudoeste 0 1015.3 -1 59
2017-08-18 13:00:00 29.1 28 Sudoeste 37 Sudoeste 0 1015.7 -0.5 64
2017-08-18 12:00:00 29 26 Sudoeste 32 Sudoeste 0 1015.9 -0.4 62
2017-08-18 11:00:00 29.2 17 Sudoeste 22 Sudoeste 0 1016.3 -0.1 53
2017-08-18 10:00:00 28.6 2 Noroeste 9 Norte 0 1016.2 -0.2 54
2017-08-18 09:00:00 25.5 10 Norte 17 Norte 0 1016.3 -0.1 65
2017-08-18 08:00:00 23.7 10 Norte 15 Norte 0 1016.4 -0.2 73
2017-08-18 07:00:00 23.4 11 Norte 15 Norte 0 1016.4 -0.4 75
2017-08-18 06:00:00 23.6 8 Norte 11 Norte 0 1016.4 -0.9 74
2017-08-18 05:00:00 23.6 8 Norte 9 Noroeste 0 1016.6 -1 72
2017-08-18 04:00:00 23.9 6 Norte 13 Norte 0 1016.8 -1.1 73
2017-08-18 03:00:00 24.3 10 Norte 13 Norte 0 1017.3 -0.9 72
2017-08-18 02:00:00 24 5 Noroeste 8 Noroeste 0 1017.6 -0.7 72
2017-08-18 01:00:00 24.8 6 Oeste 9 Oeste 0 1017.9 -0.3 72
2017-08-18 00:00:00 25.5 5 Noroeste 8 Noroeste 0 1018.2 0.3 72
2017-08-17 23:00:00 25.7 5 Oeste 9 Oeste 0 1018.3 0.7 75
2017-08-17 22:00:00 26.2 5 Oeste 11 Oeste 0 1018.2 0.5 73
2017-08-17 21:00:00 27 6 Sur 13 Sur 0 1017.9 0.1 69
2017-08-17 20:00:00 27.9 10 Sur 21 Sudoeste 0 1017.6 -0.4 67
2017-08-17 19:00:00 29 12 Sudoeste 21 Sudoeste 0 1017.7 -0.6 61
2017-08-17 18:00:00 29.2 14 Sudoeste 26 Sudoeste 0 1017.8 -0.6 61
2017-08-17 17:00:00 29.3 18 Sudoeste 30 Sudoeste 0 1018 -0.5 63
2017-08-17 16:00:00 29.4 23 Sudoeste 32 Sudoeste 0 1018.3 -0.2 62
2017-08-17 15:00:00 29.7 24 Sudoeste 33 Sudoeste 0 1018.4 -0.2 60
2017-08-17 14:00:00 29.7 23 Sudoeste 30 Sudoeste 0 1018.5 -0.5 56
2017-08-17 13:00:00 29.7 21 Sudoeste 28 Sudoeste 0 1018.5 -0.5 53
2017-08-17 12:00:00 29.9 17 Sudoeste 24 Sur 0 1018.6 -0.2 49
2017-08-17 11:00:00 29.4 12 Sudoeste 18 Sudoeste 0 1019 0.2 47
2017-08-17 10:00:00 28.3 3 Norte 15 Norte 0 1019 0.6 47
2017-08-17 09:00:00 25.4 12 Norte 22 Norte 0 1018.8 0.6 59
2017-08-17 08:00:00 23.6 16 Norte 21 Norte 0 1018.8 0.6 66
2017-08-17 07:00:00 23.1 11 Norte 17 Norte 0 1018.4 0.3 67
2017-08-17 06:00:00 23.7 14 Norte 21 Norte 0 1018.2 0.2 64
2017-08-17 05:00:00 24 14 Norte 21 Norte 0 1018.2 -0.2 62
2017-08-17 04:00:00 23.6 15 Norte 22 Norte 0 1018.1 -0.3 61
2017-08-17 03:00:00 23.8 15 Norte 21 Norte 0 1018 -0.6 59
2017-08-17 02:00:00 24.3 14 Norte 26 Nordeste 0 1018.4 -0.5 59
2017-08-17 01:00:00 24.3 13 Norte 17 Norte 0 1018.4 -0.4 62
2017-08-17 00:00:00 25.1 12 Norte 15 Norte 0 1018.6 0.4 60
2017-08-16 23:00:00 25.8 13 Nordeste 21 Este 0 1018.9 1 63
2017-08-16 22:00:00 25.8 14 Nordeste 28 Nordeste 0 1018.8 1.5 66
2017-08-16 21:00:00 26 17 Este 26 Este 0 1018.2 0.8 66
2017-08-16 20:00:00 26.7 18 Este 24 Este 0 1017.9 0.3 59
2017-08-16 19:00:00 26.9 17 Este 26 Este 0 1017.3 -0.5 63
2017-08-16 18:00:00 27.5 16 Este 28 Sudeste 0 1017.4 -0.7 62
2017-08-16 17:00:00 27.9 16 Sudeste 26 Sudeste 0 1017.6 -0.9 56
2017-08-16 16:00:00 28.4 17 Sudeste 26 Sudeste 0 1017.8 -0.9 58
2017-08-16 15:00:00 28 19 Sudeste 28 Este 0 1018.1 -0.9 62
2017-08-16 14:00:00 27.6 20 Sudeste 26 Este 0 1018.5 -0.4 64
2017-08-16 13:00:00 28.6 15 Este 26 Este 0 1018.7 -0.1 59
2017-08-16 12:00:00 27.4 13 Este 22 Sur 0 1019 0.1 66
2017-08-16 11:00:00 26.5 17 Este 22 Este 0 1018.9 0 71
2017-08-16 10:00:00 26.3 19 Este 24 Este 0 1018.8 0.3 71
2017-08-16 09:00:00 25.7 13 Este 18 Este 0 1018.9 0.6 76
2017-08-16 08:00:00 24.5 9 Nordeste 22 Este 0 1018.9 0.6 80
2017-08-16 07:00:00 24.5 15 Este 28 Este 0 1018.5 0 83
2017-08-16 06:00:00 24.8 18 Este 26 Este 0 1018.3 -0.1 82
2017-08-16 05:00:00 25 21 Este 32 Este 0 1018.3 -0.4 82
2017-08-16 04:00:00 25.4 20 Este 26 Este 0 1018.5 -0.1 80
2017-08-16 03:00:00 25.6 15 Este 22 Este 0 1018.4 0.3 81
2017-08-16 02:00:00 25.5 14 Este 18 Este 0 1018.7 0.8 84
2017-08-16 01:00:00 25.8 12 Este 15 Este 0 1018.6 0.9 83
2017-08-16 00:00:00 25.8 12 Este 18 Este 0 1018.1 0.2 84
2017-08-15 23:00:00 26 11 Este 18 Este 0 1017.9 0.5 82
2017-08-15 22:00:00 26 14 Este 21 Este 0 1017.7 -0.2 82
2017-08-15 21:00:00 26.7 15 Este 18 Este 0 1017.9 0.2 77
2017-08-15 20:00:00 26.9 15 Este 26 Este 0 1017.4 0.3 74
2017-08-15 19:00:00 26.9 10 Este 18 Este 0 1017.9 0 75
2017-08-15 18:00:00 27.9 13 Sudeste 26 Este 0 1017.7 -1.1 69
2017-08-15 17:00:00 28.6 16 Este 32 Este 0 1017.1 -1.9 65
2017-08-15 16:00:00 28 18 Este 26 Este 0 1017.9 -1 67
2017-08-15 15:00:00 28.4 13 Sudeste 26 Sudeste 0 1018.8 0 65
2017-08-15 14:00:00 28.1 16 Sudeste 32 Este 0 1019 0.2 64
2017-08-15 13:00:00 28 22 Este 32 Sudeste 0 1018.9 0.4 63
2017-08-15 12:00:00 27 21 Este 30 Este 0 1018.8 0.2 66
2017-08-15 11:00:00 27.1 19 Este 26 Este 0 1018.8 0.3 65
2017-08-15 10:00:00 25.6 10 Norte 22 Norte 0 1018.5 0.3 59
2017-08-15 09:00:00 23.2 16 Norte 22 Norte 0 1018.6 0.3 66
2017-08-15 08:00:00 21.6 17 Norte 28 Norte 0 1018.5 0.1 72
2017-08-15 07:00:00 21.1 19 Norte 24 Norte 0 1018.2 -0.2 76
2017-08-15 06:00:00 21.5 18 Norte 26 Norte 0 1018.3 -0.2 74
2017-08-15 05:00:00 21.3 15 Norte 21 Norte 0 1018.4 -0.3 74
2017-08-15 04:00:00 21.6 15 Norte 21 Norte 0 1018.4 0 75
2017-08-15 03:00:00 22.2 13 Norte 17 Norte 0 1018.5 0.2 73
2017-08-15 02:00:00 22.6 3 Norte 13 Norte 0 1018.7 0.5 74
2017-08-15 01:00:00 23.3 11 Norte 13 Norte 0 1018.4 0.6 70
2017-08-15 00:00:00 25.4 6 Este 13 Este 0 1018.3 1 66
2017-08-14 23:00:00 26 8 Sudeste 15 Sudeste 0 1018.2 1 62
2017-08-14 22:00:00 26.3 9 Sudeste 17 Sur 0 1017.8 0.3 60
2017-08-14 21:00:00 26.4 6 Sur 13 Sudoeste 0 1017.3 -0.3 61
2017-08-14 20:00:00 27.3 7 Sur 18 Sudoeste 0 1017.2 -0.4 61
2017-08-14 19:00:00 28.1 13 Sudoeste 26 Sudoeste 0 1017.5 0.1 59
2017-08-14 18:00:00 28.2 18 Sudoeste 28 Sudoeste 0 1017.6 -0.1 57
2017-08-14 17:00:00 28.6 21 Sudoeste 30 Sudoeste 0 1017.6 -0.3 55
2017-08-14 16:00:00 28.5 21 Sudoeste 32 Sudoeste 0 1017.4 -0.8 61
2017-08-14 15:00:00 28.3 22 Sudoeste 32 Sudoeste 0 1017.7 -0.3 63
2017-08-14 14:00:00 28.1 20 Sudoeste 33 Sudoeste 0 1017.9 0.3 63
2017-08-14 13:00:00 27.8 24 Sudoeste 33 Sudoeste 0 1018.2 0.6 62
2017-08-14 12:00:00 27.4 24 Sudoeste 32 Sudoeste 0 1018 0.6 62
2017-08-14 11:00:00 27.1 23 Sudoeste 35 Sudoeste 0 1017.6 0.3 61
2017-08-14 10:00:00 26.9 17 Oeste 22 Oeste 0 1017.6 0.5 62
2017-08-14 09:00:00 23.9 7 Noroeste 13 Norte 0 1017.4 0.5 68
2017-08-14 08:00:00 21.8 9 Norte 13 Norte 0 1017.3 0 76
2017-08-14 07:00:00 20.9 9 Norte 15 Norte 0 1017.1 -0.4 80
2017-08-14 06:00:00 21.6 11 Norte 15 Norte 0 1016.9 -1 79
2017-08-14 05:00:00 21.6 9 Norte 15 Norte 0 1017.3 -0.8 79
2017-08-14 04:00:00 22 12 Norte 15 Norte 0 1017.5 -0.7 78
2017-08-14 03:00:00 22.6 11 Norte 13 Norte 0 1017.9 -0.1 75
2017-08-14 02:00:00 22.9 6 Norte 9 Norte 0 1018.1 0.3 74
2017-08-14 01:00:00 23.4 8 Norte 11 Norte 0 1018.2 0.4 73
2017-08-14 00:00:00 23.8 6 Noroeste 8 Noroeste 0 1018 1.1 71
2017-08-13 23:00:00 24.4 6 Oeste 11 Sudoeste 0 1017.8 0.7 71
2017-08-13 22:00:00 25.3 10 Sudoeste 13 Sudoeste 0 1017.8 0.8 67
2017-08-13 21:00:00 25.8 10 Sudoeste 21 Sudoeste 0 1016.9 -0.5 64
2017-08-13 20:00:00 27 14 Sudoeste 24 Sudoeste 0 1017.1 -0.5 63
2017-08-13 19:00:00 27.6 19 Sudoeste 26 Oeste 0 1017 -1 62
2017-08-13 18:00:00 28 18 Sudoeste 28 Sur 0 1017.4 -1.3 61
2017-08-13 17:00:00 28.1 19 Sudoeste 30 Sudoeste 0 1017.6 -1.5 62
2017-08-13 16:00:00 28 21 Sudoeste 26 Sudoeste 0 1018 -1.2 59
2017-08-13 15:00:00 28.1 16 Sur 26 Sur 0 1018.7 -0.9 60
2017-08-13 14:00:00 27.7 18 Sur 26 Sudoeste 0 1019.1 -0.3 61
2017-08-13 13:00:00 27.1 15 Sur 24 Sur 0 1019.2 0.1 62
2017-08-13 12:00:00 26.8 13 Sur 22 Sur 0 1019.6 0.7 62
2017-08-13 11:00:00 27 9 Sur 18 Sur 0 1019.4 1.1 58
2017-08-13 10:00:00 25.2 9 Norte 18 Norte 0 1019.1 1 50
2017-08-13 09:00:00 22.2 14 Norte 24 Norte 0 1018.9 0.9 59
2017-08-13 08:00:00 20.6 18 Norte 24 Norte 0 1018.3 -0.1 64
2017-08-13 07:00:00 20.2 16 Norte 22 Norte 0 1018.1 -0.8 65
2017-08-13 06:00:00 20.6 15 Norte 21 Norte 0 1018 -1.3 65
2017-08-13 05:00:00 20.9 15 Norte 18 Norte 0 1018.4 -1.4 66
2017-08-13 04:00:00 21.1 11 Norte 15 Norte 0 1018.9 -1.3 65
2017-08-13 03:00:00 21.7 12 Norte 15 Norte 0 1019.3 -1.1 64
2017-08-13 02:00:00 21.8 10 Norte 15 Norte 0 1019.8 -0.6 62
2017-08-13 01:00:00 22.4 6 Norte 9 Norte 0 1020.2 0 62
2017-08-13 00:00:00 22.9 5 Noroeste 11 Oeste 0 1020.4 0.8 61
2017-08-12 23:00:00 23.1 9 Oeste 13 Oeste 0 1020.4 1 61
2017-08-12 22:00:00 23.6 10 Oeste 15 Oeste 0 1020.2 1 59
2017-08-12 21:00:00 24.6 10 Oeste 21 Sudoeste 0 1019.6 0.3 55
2017-08-12 20:00:00 26 15 Sudoeste 24 Sudoeste 0 1019.4 -0.3 50
2017-08-12 19:00:00 26.5 17 Sudoeste 26 Sudoeste 0 1019.2 -0.9 48
2017-08-12 18:00:00 26.9 15 Sudoeste 26 Sudoeste 0 1019.3 -1.3 45
2017-08-12 17:00:00 27 17 Sudoeste 26 Sudoeste 0 1019.7 -1.3 48
2017-08-12 16:00:00 27.2 17 Sur 26 Sudoeste 0 1020.1 -1.1 51
2017-08-12 15:00:00 26.7 14 Sur 30 Sudeste 0 1020.6 -0.8 57
2017-08-12 14:00:00 26.8 15 Sur 24 Sur 0 1021 -0.5 50
2017-08-12 13:00:00 26.7 14 Sur 26 Sur 0 1021.2 -0.3 49
2017-08-12 12:00:00 26.3 14 Sudeste 21 Sudeste 0 1021.4 0.1 55
2017-08-12 11:00:00 26.4 5 Este 13 Este 0 1021.5 0.6 45
2017-08-12 10:00:00 23.9 8 Norte 17 Norte 0 1021.5 1.1 63
2017-08-12 09:00:00 21.9 13 Norte 22 Norte 0 1021.3 1.1 71
2017-08-12 08:00:00 20.5 14 Norte 21 Norte 0 1020.9 0.5 76
2017-08-12 07:00:00 20.4 12 Norte 15 Norte 0 1020.4 -0.2 76
2017-08-12 06:00:00 20.7 6 Norte 17 Norte 0 1020.2 -0.7 77
2017-08-12 05:00:00 21.9 8 Norte 18 Sur 0 1020.4 -0.6 75
2017-08-12 04:00:00 22.9 9 Sur 21 Sudoeste 0.5 1020.6 -0.6 69
2017-08-12 03:00:00 23.3 13 Sur 22 Sur 0 1020.9 -0.3 65
2017-08-12 02:00:00 23.8 15 Sudeste 24 Sudeste 0 1021 -0.2 61
2017-08-12 01:00:00 23.8 15 Sudeste 24 Sudeste 0 1021.2 0.3 65
2017-08-12 00:00:00 23.8 15 Sudeste 24 Sudeste 0 1021.2 1.1 63
2017-08-11 23:00:00 24.1 15 Sudeste 24 Sudeste 0 1021.2 1.5 61
2017-08-11 22:00:00 24.1 12 Sudeste 24 Sudeste 0 1020.9 1.5 58
2017-08-11 21:00:00 24.3 15 Sudeste 28 Sudeste 0 1020.1 0.6 56
2017-08-11 20:00:00 24.9 15 Sudeste 24 Sur 0 1019.7 0.4 55
2017-08-11 19:00:00 25.1 14 Sur 30 Sur 0 1019.4 -0.3 53
2017-08-11 18:00:00 24.8 20 Sudeste 32 Sudeste 0 1019.5 -0.6 58
2017-08-11 17:00:00 25.2 18 Sur 32 Sudeste 0 1019.3 -1 52
2017-08-11 16:00:00 25.8 19 Sudeste 30 Sur 0 1019.7 -0.8 55
2017-08-11 15:00:00 25.1 15 Sur 24 Sudeste 0 1020.1 -0.6 54
2017-08-11 14:00:00 24.9 17 Sudeste 28 Sur 0 1020.3 -0.2 52
2017-08-11 13:00:00 25.3 12 Sur 24 Sur 0 1020.5 0 48
2017-08-11 12:00:00 25 4 Norte 32 Norte 0 1020.7 0.3 45
2017-08-11 11:00:00 22.7 16 Norte 32 Norte 0 1020.5 0.6 44
2017-08-11 10:00:00 20.9 24 Norte 33 Norte 0 1020.5 1.1 47
2017-08-11 09:00:00 19.4 27 Norte 41 Norte 0 1020.4 1.2 50
2017-08-11 08:00:00 18.4 23 Norte 32 Norte 0 1019.9 0.6 52
2017-08-11 07:00:00 18.5 18 Norte 26 Norte 0 1019.4 -0.1 50
2017-08-11 06:00:00 18.9 15 Norte 21 Norte 0 1019.2 -0.1 49
2017-08-11 05:00:00 19.9 10 Noroeste 21 Norte 0 1019.3 -0.3 47
2017-08-11 04:00:00 20.5 13 Norte 26 Norte 0 1019.5 -0.3 51
2017-08-11 03:00:00 20.5 12 Norte 18 Norte 0 1019.3 -0.1 66
2017-08-11 02:00:00 21.2 15 Norte 21 Norte 0 1019.6 0.7 65
2017-08-11 01:00:00 22 12 Norte 15 Norte 0 1019.8 2 62
2017-08-11 00:00:00 23.1 8 Nordeste 21 Norte 0 1019.4 1.5 63
2017-08-10 23:00:00 24.3 13 Noroeste 33 Sudoeste 0 1018.9 1.2 51
2017-08-10 22:00:00 25.3 29 Sudoeste 48 Sudoeste 0 1017.8 0.1 62
2017-08-10 21:00:00 25.2 35 Sudoeste 48 Sudoeste 0 1017.9 -0.2 58
2017-08-10 20:00:00 25.8 27 Sudoeste 39 Sudoeste 0 1017.7 -0.6 48
2017-08-10 19:00:00 26.1 30 Sudoeste 42 Sudoeste 0 1017.7 -1.2 44
2017-08-10 18:00:00 26.2 30 Sudoeste 45 Sudoeste 0 1018.1 -1.1 40
2017-08-10 17:00:00 26.5 34 Sudoeste 45 Sudoeste 0 1018.3 -1.2 39
2017-08-10 16:00:00 26.3 30 Sudoeste 41 Sudoeste 0 1018.9 -0.8 40
2017-08-10 15:00:00 25.9 27 Sudoeste 41 Sudoeste 0 1019.2 -0.7 41
2017-08-10 14:00:00 25 24 Sudoeste 33 Sudoeste 0 1019.5 -0.7 43
2017-08-10 13:00:00 25.6 15 Norte 30 Norte 0 1019.7 -0.4 31
2017-08-10 12:00:00 23.3 12 Norte 28 Norte 0 1019.9 0.3 49
2017-08-10 11:00:00 21.1 20 Norte 28 Norte 0 1020.2 0.8 55
2017-08-10 10:00:00 18.7 19 Norte 32 Norte 0 1020.1 1.6 64
2017-08-10 09:00:00 17.4 15 Norte -- -- -- 1019.6 0.9 70
2017-08-10 08:00:00 17.2 15 Norte 22 Norte 0 1019.4 0.4 72
2017-08-10 07:00:00 17.4 11 Norte 18 Norte 0 1018.5 -0.3 73
2017-08-10 06:00:00 18.2 8 Noroeste 13 Noroeste 0 1018.7 -0.3 73
2017-08-10 05:00:00 18.4 7 Norte 18 Nordeste 0 1019 -0.3 78
2017-08-10 04:00:00 18.7 7 Este 17 Norte 0 1018.8 -1 81
2017-08-10 03:00:00 18.6 7 Oeste 13 Oeste 0 1019 -0.2 83
2017-08-10 02:00:00 18.6 0 Calma 11 Nordeste 0.2 1019.3 0.1 84
2017-08-10 01:00:00 18.5 5 Oeste 18 Norte 0.4 1019.8 1.7 86
2017-08-10 00:00:00 18.9 14 Noroeste 18 Norte 0.5 1019.2 2.3 85
2017-08-09 23:00:00 18.9 15 Norte 28 Norte 1.1 1019.2 3.2 89
2017-08-09 22:00:00 20.1 19 Norte 41 Noroeste 0.3 1018.1 2.4 81
2017-08-09 21:00:00 23.2 13 Norte 54 Norte 0 1016.9 1 62
2017-08-09 20:00:00 25.1 21 Este 32 Este 0 1016 0.1 48
2017-08-09 19:00:00 25.5 23 Este 33 Este 0 1015.7 -0.4 49
2017-08-09 18:00:00 25.9 23 Este 32 Sudeste 0 1015.9 0 51
2017-08-09 17:00:00 26.6 18 Sudeste 28 Sudeste 0 1015.9 0 50
2017-08-09 16:00:00 26 17 Sudeste 26 Sudeste 0 1016.1 0 54
2017-08-09 15:00:00 26.9 17 Sudeste 28 Sudeste 0 1015.9 -0.2 53
2017-08-09 14:00:00 26.4 16 Sudeste 26 Sur 0 1015.9 -0.1 55
2017-08-09 13:00:00 26.7 15 Sudeste 24 Sudeste 0 1016.1 0.3 52
2017-08-09 12:00:00 25.8 13 Sudeste 24 Sudeste 0 1016.1 0.6 53
2017-08-09 11:00:00 26.2 12 Sudeste 21 Sudeste 0 1016 0.9 50
2017-08-09 10:00:00 24.8 10 Norte 21 Norte 0 1015.8 0.6 40
2017-08-09 09:00:00 22.6 14 Nordeste 28 Norte 0 1015.5 0.6 50
2017-08-09 08:00:00 21.8 19 Norte 26 Norte 0 1015.1 0 62
2017-08-09 07:00:00 21.3 14 Norte 22 Norte 0 1015.2 -0.2 62
2017-08-09 06:00:00 21.4 12 Norte 17 Norte 0 1014.9 -0.7 62
2017-08-09 05:00:00 21.5 12 Norte 21 Norte 0 1015.1 -0.8 62
2017-08-09 04:00:00 21.6 13 Norte 17 Norte 0 1015.4 -0.6 61
2017-08-09 03:00:00 22.3 9 Norte 17 Norte 0 1015.6 -0.1 59
2017-08-09 02:00:00 22 7 Norte 11 Norte 0 1015.9 0.4 71
2017-08-09 01:00:00 23.8 3 Noroeste 22 Sudeste 0 1016 1 60
2017-08-09 00:00:00 24.9 14 Este 18 Este 0 1015.7 1.6 53
2017-08-08 23:00:00 25.8 10 Este 15 Este 0 1015.5 2.1 50
2017-08-08 22:00:00 25.8 10 Este 17 Este 0 1015 2.1 54
2017-08-08 21:00:00 25.8 11 Este 21 Este 0 1014.1 1.7 61
2017-08-08 20:00:00 26.2 12 Sudeste 21 Este 0 1013.4 1.1 60
2017-08-08 19:00:00 26.2 15 Sudeste 32 Este 0 1012.9 0.9 58
2017-08-08 18:00:00 26.6 21 Este 33 Este 0 1012.4 0.4 52
2017-08-08 17:00:00 27.1 22 Este 35 Este 0 1012.3 0.3 50
2017-08-08 16:00:00 26.9 17 Este 30 Este 0 1012 0.1 57
2017-08-08 15:00:00 26.7 29 Este 37 Este 0 1012 0.9 59
2017-08-08 14:00:00 26.2 24 Este 42 Este 0 1012 1.4 71
2017-08-08 13:00:00 25.4 33 Este 52 Este 1.1 1011.9 2.5 75
2017-08-08 12:00:00 26.5 42 Este 71 Este 0 1011.1 1.8 68
2017-08-08 11:00:00 28.7 36 Este 54 Este 0 1010.6 1.6 73
2017-08-08 10:00:00 29.7 13 Sur 21 Sur 0 1009.4 0.6 76
2017-08-08 09:00:00 28.9 15 Sur 22 Sudoeste 0 1009.3 0.7 80
2017-08-08 08:00:00 28.4 13 Sudoeste 22 Sudoeste 0 1009 0.3 83
2017-08-08 07:00:00 28 17 Sudoeste 30 Sudoeste 0 1008.8 0 83
2017-08-08 06:00:00 27.8 18 Sudoeste 24 Sudoeste 0 1008.6 -0.8 84
2017-08-08 05:00:00 27.9 17 Sudoeste 26 Sudoeste 0 1008.7 -1.4 81
2017-08-08 04:00:00 27.8 15 Sudoeste 22 Sudoeste 0 1008.8 -2 83
2017-08-08 03:00:00 27.7 12 Sudoeste 18 Sudoeste 0 1009.4 -1.9 81
2017-08-08 02:00:00 27.9 10 Sudoeste 22 Sudoeste 0 1010.1 -2.1 81
2017-08-08 01:00:00 27.9 12 Sudoeste 18 Sudoeste 0 1010.8 -1.2 81
2017-08-08 00:00:00 27.6 8 Sur 18 Sudoeste 0 1011.3 -0.3 78
2017-08-07 23:00:00 27.7 12 Sudoeste 18 Sur 0 1012.2 0.4 74
2017-08-07 22:00:00 27.9 13 Sudoeste 18 Sudoeste 0 1012 -0.1 72
2017-08-07 21:00:00 28.2 13 Sudoeste 18 Sudoeste 0 1011.6 -0.8 70
2017-08-07 20:00:00 28.6 14 Sudoeste 21 Sudoeste 0 1011.8 -1.2 68
2017-08-07 19:00:00 29.4 13 Sudoeste 22 Sudoeste 0 1012.1 -1.6 64
2017-08-07 18:00:00 30.1 13 Sur 26 Sur 0 1012.4 -1.8 59
2017-08-07 17:00:00 30.1 17 Sur 28 Sur 0 1013 -1.8 57
2017-08-07 16:00:00 30.1 21 Sur 30 Sur 0 1013.7 -1.1 52
2017-08-07 15:00:00 30.4 19 Sudoeste 30 Sudoeste 0 1014.2 -1.1 59
2017-08-07 14:00:00 30.6 18 Sudoeste 30 Sur 0 1014.8 -0.5 57
2017-08-07 13:00:00 30 21 Sur 33 Sudoeste 0 1014.8 -0.9 60
2017-08-07 12:00:00 29.5 17 Sur 28 Sudoeste 0 1015.3 -0.3 60
2017-08-07 11:00:00 29.3 16 Sudoeste 22 Sudoeste 0 1015.3 0 61
2017-08-07 10:00:00 28.5 12 Sudoeste 18 Sudoeste 0 1015.7 0.3 62
2017-08-07 09:00:00 27.1 9 Norte 17 Norte 0 1015.6 0.1 66
2017-08-07 08:00:00 25.1 12 Norte 17 Norte 0 1015.3 -0.5 72
2017-08-07 07:00:00 24.1 9 Norte 13 Norte 0 1015.4 -0.7 75
2017-08-07 06:00:00 24.5 9 Norte 13 Norte 0 1015.5 -0.8 75
2017-08-07 05:00:00 24.6 10 Norte 13 Norte 0 1015.8 -0.7 75
2017-08-07 04:00:00 24.7 9 Norte 13 Norte 0 1016.1 -0.6 75
2017-08-07 03:00:00 24.9 11 Norte 15 Norte 0 1016.3 -0.5 75
2017-08-07 02:00:00 25.1 6 Norte 9 Noroeste 0 1016.5 -0.3 73
2017-08-07 01:00:00 26.1 6 Oeste 9 Oeste 0 1016.7 0.1 68
2017-08-07 00:00:00 26.7 5 Sur 11 Sur 0 1016.8 0.6 63
2017-08-06 23:00:00 26.8 8 Sur 13 Sur 0 1016.8 0.6 65
2017-08-06 22:00:00 26.9 10 Sur 15 Sur 0 1016.6 0.2 66
2017-08-06 21:00:00 27.2 12 Sur 18 Sur 0 1016.2 -0.3 66
2017-08-06 20:00:00 27.8 13 Sur 22 Sur 0 1016.2 -0.4 64
2017-08-06 19:00:00 28.5 14 Sur 26 Sur 0 1016.4 -0.2 63
2017-08-06 18:00:00 28.8 18 Sur 26 Sur 0 1016.5 -0.2 62
2017-08-06 17:00:00 29.2 18 Sur 30 Sur 0 1016.6 -0.1 63
2017-08-06 16:00:00 28.8 21 Sur 28 Sur 0 1016.6 -0.1 66
2017-08-06 15:00:00 29.5 17 Sur 28 Sur 0 1016.7 0.1 65
2017-08-06 14:00:00 30 19 Sur 28 Sur 0 1016.7 0 64
2017-08-06 13:00:00 30.4 16 Sur 26 Sur 0 1016.7 0 67
2017-08-06 12:00:00 30.1 14 Sur 24 Sudeste 0 1016.6 0 68
2017-08-06 11:00:00 30.8 14 Sudeste 22 Sudeste 0 1016.7 0.9 64
2017-08-06 10:00:00 29.1 15 Norte 21 Norte 0 1016.7 1.4 59
2017-08-06 09:00:00 27.2 14 Norte 21 Norte 0 1016.6 2 69
2017-08-06 08:00:00 26.1 13 Norte 17 Norte 0 1015.8 1.4 74
2017-08-06 07:00:00 26.4 14 Norte 21 Norte 0 1015.3 0.6 69
2017-08-06 06:00:00 26.6 11 Norte 15 Norte 0 1014.6 -0.1 69
2017-08-06 05:00:00 26.4 11 Norte 13 Norte 0 1014.4 -0.3 69
2017-08-06 04:00:00 26.8 2 Norte 15 Norte 0 1014.7 0.1 74
2017-08-06 03:00:00 27.2 10 Norte 15 Norte 0 1014.7 -0.2 72
2017-08-06 02:00:00 27.4 3 Norte 11 Oeste 0 1014.7 -0.2 82
2017-08-06 01:00:00 28 5 Este 11 Sudeste 0 1014.6 0.5 81
2017-08-06 00:00:00 28.3 4 Sur 11 Sudoeste 0 1014.9 1.2 78
2017-08-05 23:00:00 28.3 5 Oeste 9 Sudoeste 0 1014.9 1.7 77
2017-08-05 22:00:00 28.8 6 Sur 13 Sudoeste 0 1014.1 0.9 75
2017-08-05 21:00:00 29.1 12 Sudoeste 22 Sudoeste 0 1013.7 0.3 74
2017-08-05 20:00:00 29.8 19 Sudoeste 28 Sudoeste 0 1013.2 -0.2 69
2017-08-05 19:00:00 30.6 23 Sudoeste 33 Oeste 0 1013.2 -0.7 66
2017-08-05 18:00:00 31.4 25 Oeste 37 Oeste 0 1013.4 -0.9 63
2017-08-05 17:00:00 32.1 27 Sudoeste 37 Oeste 0 1013.4 -1.2 56
2017-08-05 16:00:00 32.1 24 Oeste 37 Sudoeste 0 1013.9 -1.1 58
2017-08-05 15:00:00 32.3 26 Sudoeste 37 Sudoeste 0 1014.3 -0.8 54
2017-08-05 14:00:00 32.6 28 Sudoeste 37 Sudoeste 0 1014.6 -0.4 46
2017-08-05 13:00:00 32.8 23 Sudoeste 32 Oeste 0 1015 0 43
2017-08-05 12:00:00 33.2 16 Sudoeste 22 Sudoeste 0 1015.1 0.1 41
2017-08-05 11:00:00 32.7 7 Sur 15 Sur 0 1015 0.4 46
2017-08-05 10:00:00 32 2 Nordeste 13 Norte 0 1015 0.6 48
2017-08-05 09:00:00 28.6 11 Norte 17 Norte 0 1015 1.1 59
2017-08-05 08:00:00 26.9 11 Norte 21 Norte 0 1014.6 0.7 65
2017-08-05 07:00:00 26.1 14 Norte 18 Norte 0 1014.4 0.3 68
2017-08-05 06:00:00 26.4 13 Norte 18 Norte 0 1013.9 -0.2 69
2017-08-05 05:00:00 26.6 11 Norte 13 Norte 0 1013.9 -0.4 69
2017-08-05 04:00:00 26.6 7 Noroeste 11 Norte 0 1014.1 -0.3 68
2017-08-05 03:00:00 26.8 6 Noroeste 8 Noroeste 0 1014.1 -0.5 67
2017-08-05 02:00:00 27.4 4 Noroeste 8 Nordeste 0 1014.3 -0.3 66
2017-08-05 01:00:00 27.7 7 Noroeste 9 Noroeste 0 1014.4 0.2 70
2017-08-05 00:00:00 27.6 2 Oeste 11 Noroeste 0 1014.6 0.9 73
2017-08-04 23:00:00 28.1 6 Oeste 13 Oeste 0 1014.6 1.3 71
2017-08-04 22:00:00 29.1 3 Sudeste 41 Sudeste 0 1014.2 1.3 63
2017-08-04 21:00:00 29.3 6 Sur 13 Sur 0 1013.7 0.9 68
2017-08-04 20:00:00 30.3 8 Sudoeste 17 Sur 0 1013.3 0.3 68
2017-08-04 19:00:00 30.9 12 Sudoeste 22 Sudoeste 0 1012.9 -0.1 64
2017-08-04 18:00:00 31.4 18 Sudoeste 28 Sudoeste 0 1012.8 -0.6 63
2017-08-04 17:00:00 31.4 23 Sudoeste 30 Sudoeste 0 1013 -0.9 61
2017-08-04 16:00:00 32.4 22 Sudoeste 30 Sudoeste 0 1013 -1.4 56
2017-08-04 15:00:00 32.5 21 Sudoeste 28 Sudoeste 0 1013.4 -1.2 53
2017-08-04 14:00:00 32.4 22 Sudoeste 28 Sudoeste 0 1013.9 -0.6 51
2017-08-04 13:00:00 32.6 18 Sudoeste 24 Sudoeste 0 1014.4 -0.1 50
2017-08-04 12:00:00 32 15 Sudoeste 21 Sudoeste 0 1014.6 0.1 50
2017-08-04 11:00:00 32.3 11 Sudoeste 15 Sudoeste 0 1014.5 0.1 48
2017-08-04 10:00:00 30.5 4 Norte 17 Norte 0 1014.5 0.4 52
2017-08-04 09:00:00 27.7 14 Norte 18 Norte 0 1014.5 0.6 59
2017-08-04 08:00:00 25.7 14 Norte 21 Norte 0 1014.4 0.6 64
2017-08-04 07:00:00 25.2 13 Norte 18 Norte 0 1014.1 0.4 70
2017-08-04 06:00:00 25.2 12 Norte 15 Norte 0 1013.9 0 77
2017-08-04 05:00:00 25.4 7 Norte 9 Norte 0 1013.8 -0.4 82
2017-08-04 04:00:00 25.7 5 Norte 9 Norte 0 1013.7 -0.6 84
2017-08-04 03:00:00 26.1 6 Norte 9 Norte 0 1013.9 0 85
2017-08-04 02:00:00 26.3 3 Norte 9 Noroeste 0 1014.2 0.4 86
2017-08-04 01:00:00 26.9 4 Este 22 Este 0 1014.3 0.7 83
2017-08-04 00:00:00 27.3 16 Sudeste 24 Sudeste 0 1013.9 0.7 83
2017-08-03 23:00:00 27.6 12 Este 21 Este 0 1013.8 0.8 78
2017-08-03 22:00:00 27.7 13 Este 21 Norte 0 1013.6 0.4 79
2017-08-03 21:00:00 28.4 13 Este 18 Este 0 1013.2 -0.6 75
2017-08-03 20:00:00 30 14 Este 21 Sudeste 0 1013 -1.5 66
2017-08-03 19:00:00 30.8 13 Este 21 Este 0 1013.2 -2 63
2017-08-03 18:00:00 30.7 14 Este 24 Este 0 1013.8 -1.9 62
2017-08-03 17:00:00 29.7 19 Este 30 Este 0 1014.5 -1.9 68
2017-08-03 16:00:00 28.6 19 Este 30 Nordeste 0 1015.2 -1.1 73
2017-08-03 15:00:00 29 19 Este 28 Sudeste 0 1015.7 0.2 72
2017-08-03 14:00:00 28 18 Este 26 Sudeste 0 1016.4 1.4 78
2017-08-03 13:00:00 27.8 18 Este 33 Sudeste 0 1016.3 2.1 79
2017-08-03 12:00:00 28.7 24 Sudeste 33 Este 0 1015.5 1.3 77
2017-08-03 11:00:00 31.5 21 Sudeste 30 Sudeste 0 1015 0.4 60
2017-08-03 10:00:00 31.9 22 Norte 30 Norte 0 1014.2 -1 44
2017-08-03 09:00:00 29.6 21 Norte 30 Norte 0 1014.2 -1.8 50
2017-08-03 08:00:00 27.3 19 Norte 30 Norte 0 1014.6 -1 57
2017-08-03 07:00:00 26.1 20 Norte 28 Norte 0 1015.2 -0.7 63
2017-08-03 06:00:00 26 8 Norte 18 Norte 0 1016 -0.2 67
2017-08-03 05:00:00 26.5 9 Norte 17 Norte 0 1015.6 -0.2 80
2017-08-03 04:00:00 26.7 5 Norte 8 Noroeste 0 1015.9 -0.1 92
2017-08-03 03:00:00 27.2 6 Sudeste 13 Este 0 1016.2 0.4 88
2017-08-03 02:00:00 27.2 3 Norte 13 Nordeste 0 1015.8 0.2 67
2017-08-03 01:00:00 28.8 8 Nordeste 15 Nordeste 0 1016 0.6 63
2017-08-03 00:00:00 29.8 10 Nordeste 15 Norte 0 1015.8 0.8 53
2017-08-02 23:00:00 29.7 9 Norte 11 Norte 0 1015.6 1.3 64
2017-08-02 22:00:00 28.9 -- -- -- -- 0 1015.4 -1 76
2017-08-02 21:00:00 29.4 5 Este 13 Sudeste 0 1015 -2.4 73
2017-08-02 20:00:00 29.7 11 Sudeste 21 Sudeste 0 1014.3 -2.3 73
2017-08-02 19:00:00 30.5 13 Sudoeste 32 Oeste 0 1016.4 -1.4 67
2017-08-02 18:00:00 30.3 12 Sur 18 Sudoeste 0 1017.4 -0.6 69
2017-08-02 17:00:00 29.9 9 Este 26 Este 0 1016.6 -1.3 68
2017-08-02 16:00:00 29.5 12 Este 24 Sudeste 0 1017.8 -0.1 71
2017-08-02 15:00:00 29.1 17 Este 46 Nordeste 0 1018 1 72
2017-08-02 14:00:00 30.5 21 Este 35 Este 0 1017.9 0 56
2017-08-02 13:00:00 29.8 23 Este 48 Nordeste 0 1017.9 -0.6 60
2017-08-02 12:00:00 29.8 26 Este 33 Este 0 1017 -1.1 57
2017-08-02 11:00:00 29.7 20 Este 24 Este 0 1017.9 0.9 58
2017-08-02 10:00:00 29.2 14 Este 21 Este 0 1018.5 1.7 59
2017-08-02 09:00:00 27.5 10 Nordeste 21 Norte 0 1018.1 1.6 59
2017-08-02 08:00:00 25.5 16 Norte 21 Norte 0 1017 0.3 66
2017-08-02 07:00:00 24.5 13 Norte 18 Norte 0 1016.8 0.2 71
2017-08-02 06:00:00 24.5 14 Norte 21 Norte 0 1016.5 0.2 72
2017-08-02 05:00:00 25.1 12 Norte 24 Norte 0 1016.7 0.2 75
2017-08-02 04:00:00 25.9 16 Norte 37 Nordeste 0 1016.6 -0.5 76
2017-08-02 03:00:00 26.2 15 Norte 30 Norte 0 1016.3 -0.7 78
2017-08-02 02:00:00 26.6 18 Norte 50 Norte 0 1016.5 0.3 79
2017-08-02 01:00:00 26.8 17 Norte 24 Norte 0 1017.1 1.5 79
2017-08-02 00:00:00 26.6 14 Norte 22 Norte 0 1017 2.3 80
2017-08-01 23:00:00 26.8 13 Norte 30 Norte 0 1016.2 2.5 83
2017-08-01 22:00:00 26.7 8 Nordeste 35 Nordeste 0 1015.6 1.5 84
2017-08-01 21:00:00 26.8 15 Nordeste 28 Nordeste 0 1014.7 0.5 85
2017-08-01 20:00:00 26.9 21 Este 37 Este 0 1013.7 -1.8 85
2017-08-01 19:00:00 26.8 19 Este 28 Este 0 1014.1 -1.8 86
2017-08-01 18:00:00 27.8 13 Nordeste 33 Norte 0 1014.2 1.5 80
2017-08-01 17:00:00 27.2 9 Nordeste 21 Sudeste 0 1015.5 3.4 85
2017-08-01 16:00:00 28 14 Sudeste 46 Nordeste 0 1015.9 4.1 80
2017-08-01 15:00:00 29.1 29 Sudeste 39 Sudeste 0 1012.7 -0.5 74
2017-08-01 14:00:00 29.3 17 Este 26 Este 0 1012.1 -0.7 72
2017-08-01 13:00:00 28.4 12 Nordeste 35 Norte 0 1011.8 -0.3 73
2017-08-01 12:00:00 28 17 Este 26 Nordeste 0 1013.2 1.7 74
2017-08-01 11:00:00 29 10 Este 22 Este 0 1012.8 1.9 70
2017-08-01 10:00:00 27 16 Este 30 Nordeste 0 1012.1 1.6 76
2017-08-01 09:00:00 26.6 21 Este 30 Nordeste 0 1011.5 1.5 80
2017-08-01 08:00:00 26.3 18 Este 24 Nordeste 0 1010.9 1 82
2017-08-01 07:00:00 26 15 Nordeste 28 Este 0 1010.5 0.4 83
2017-08-01 06:00:00 26 24 Este 33 Nordeste 0 1010 -0.2 84
2017-08-01 05:00:00 26.2 22 Nordeste 28 Nordeste 0 1009.9 -0.6 84
2017-08-01 04:00:00 26.4 18 Este 26 Nordeste 0 1010.1 -0.8 83
2017-08-01 03:00:00 26.4 20 Nordeste 30 Este 0 1010.2 -1 84
2017-08-01 02:00:00 26.5 26 Este 32 Este 0 1010.5 -0.2 83
2017-08-01 01:00:00 26.8 22 Este 28 Este 0 1010.9 0.9 80
2017-08-01 00:00:00 27 22 Este 30 Este 0 1011.2 1.8 80
2017-07-31 23:00:00 26.8 26 Este 35 Este 0 1010.7 1.5 84
2017-07-31 22:00:00 26.8 25 Este 35 Nordeste 0 1010 0.7 83
2017-07-31 21:00:00 26.7 25 Este 33 Este 0 1009.4 -0.4 82
2017-07-31 20:00:00 27.6 26 Este 33 Este 0 1009.2 -1 77
2017-07-31 19:00:00 28.1 27 Este 54 Nordeste 0 1009.3 -1.1 74
2017-07-31 18:00:00 28.5 26 Este 37 Este 0 1009.8 -0.9 71
2017-07-31 17:00:00 29.2 27 Este 35 Este 0 1010.2 -0.9 67
2017-07-31 16:00:00 29.4 28 Este 45 Sudeste 0 1010.4 -0.7 64
2017-07-31 15:00:00 28.6 24 Este 37 Este 0 1010.7 -0.9 69
2017-07-31 14:00:00 28.9 25 Este 37 Este 0 1011.1 -0.5 69
2017-07-31 13:00:00 28.5 26 Este 37 Este 0 1011.1 -0.5 69
2017-07-31 12:00:00 27.3 27 Este 41 Este 0 1011.6 -0.1 74
2017-07-31 11:00:00 26.8 33 Este 42 Este 0 1011.6 0 73
2017-07-31 10:00:00 26.8 30 Este 37 Este 0 1011.6 0.2 71
2017-07-31 09:00:00 26.5 28 Este 37 Este 0 1011.7 0.4 71
2017-07-31 08:00:00 25.5 24 Este 35 Nordeste 0 1011.6 0.3 77
2017-07-31 07:00:00 25.2 23 Este 32 Este 0 1011.4 -0.2 78
2017-07-31 06:00:00 25.2 18 Este 30 Este 0 1011.3 -0.6 80
2017-07-31 05:00:00 25.2 21 Este 28 Este 0 1011.3 -0.7 82
2017-07-31 04:00:00 25.4 21 Este 32 Este 0 1011.6 -0.6 83
2017-07-31 03:00:00 26 18 Este 26 Este 0 1011.9 -0.2 83
2017-07-31 02:00:00 26.1 14 Nordeste 24 Nordeste 0 1012 -0.2 84
2017-07-31 01:00:00 26.4 19 Este 22 Este 0 1012.2 0.5 84
2017-07-31 00:00:00 26.6 12 Nordeste 24 Nordeste 0 1012.1 0.6 79
2017-07-30 23:00:00 26.4 15 Nordeste 22 Nordeste 0 1012.2 0.8 82
2017-07-30 22:00:00 26.6 15 Este 26 Este 0 1011.7 0.3 80
2017-07-30 21:00:00 27.1 17 Este 26 Norte 0 1011.5 -0.2 80
2017-07-30 20:00:00 27.7 17 Este 26 Este 0 1011.4 -0.6 77
2017-07-30 19:00:00 28.7 19 Este 32 Este 0 1011.4 -1.1 73
2017-07-30 18:00:00 29.4 23 Este 28 Este 0 1011.7 -1.1 69
2017-07-30 17:00:00 30.5 20 Sudeste 30 Sudeste 0 1012 -0.8 59
2017-07-30 16:00:00 30.7 17 Sudeste 26 Sudeste 0 1012.5 -0.4 54
2017-07-30 15:00:00 30.4 16 Sudeste 24 Sudeste 0 1012.8 -0.4 56
2017-07-30 14:00:00 30.7 14 Sudeste 28 Sudeste 0 1012.8 -0.4 57
2017-07-30 13:00:00 30 14 Sudeste 22 Sudeste 0 1012.9 -0.1 61
2017-07-30 12:00:00 30 12 Sudeste 18 Sudeste 0 1013.2 0.1 59
2017-07-30 11:00:00 29.7 11 Sudeste 18 Sudeste 0 1013.2 0.2 60
2017-07-30 10:00:00 29.3 3 Nordeste 17 Norte 0 1013 0.1 58
2017-07-30 09:00:00 26.1 13 Norte 18 Norte 0 1013.1 0.2 57
2017-07-30 08:00:00 23.8 14 Norte 21 Norte 0 1013 0 64
2017-07-30 07:00:00 23 17 Norte 22 Norte 0 1012.9 -0.3 68
2017-07-30 06:00:00 23.2 14 Norte 21 Norte 0 1012.9 -0.6 68
2017-07-30 05:00:00 23.2 15 Norte 18 Norte 0 1013 -0.8 64
2017-07-30 04:00:00 23.7 10 Norte 15 Norte 0 1013.2 -0.7 61
2017-07-30 03:00:00 24.1 6 Norte 11 Norte 0 1013.5 -0.5 65
2017-07-30 02:00:00 24.3 2 Noroeste 9 Oeste 0 1013.8 -0.3 73
2017-07-30 01:00:00 25.7 8 Sudoeste 11 Sudoeste 0 1013.9 0 84
2017-07-30 00:00:00 25.7 5 Oeste 9 Sudoeste 0 1014 0.2 84
2017-07-29 23:00:00 26.4 7 Sudoeste 11 Oeste 0 1014.1 0.5 80
2017-07-29 22:00:00 26.8 9 Sudoeste 17 Sudoeste 0 1013.9 0 78
2017-07-29 21:00:00 27.6 10 Sudoeste 15 Sudoeste 0 1013.8 -0.5 74
2017-07-29 20:00:00 28.6 12 Sudoeste 18 Sudoeste 0 1013.6 -1.1 70
2017-07-29 19:00:00 29.3 13 Sudoeste 21 Sur 0 1013.9 -1.3 67
2017-07-29 18:00:00 29 13 Sur 21 Sur 0 1014.3 -1.3 72
2017-07-29 17:00:00 29.1 14 Sur 24 Sudeste 0 1014.7 -1.5 73
2017-07-29 16:00:00 29.4 13 Sur 24 Sudeste 0 1015.2 -1.2 70
2017-07-29 15:00:00 28.8 14 Sudeste 24 Sudeste 0 1015.6 -1 72
2017-07-29 14:00:00 28.4 17 Sudeste 26 Sudeste 0 1016.2 -0.3 72
2017-07-29 13:00:00 28.1 17 Sudeste 30 Sudeste 0 1016.4 -0.2 72
2017-07-29 12:00:00 28.3 15 Sudeste 26 Sudeste 0 1016.6 0.2 67
2017-07-29 11:00:00 28.2 14 Sudeste 21 Sudeste 0 1016.5 0.4 68
2017-07-29 10:00:00 27.6 9 Nordeste 15 Nordeste 0 1016.6 0.8 67
2017-07-29 09:00:00 25.4 11 Norte 18 Norte 0 1016.4 0.7 72
2017-07-29 08:00:00 23.4 14 Norte 18 Norte 0 1016.1 0.2 80
2017-07-29 07:00:00 22.5 13 Norte 15 Norte 0 1015.8 -0.1 85
2017-07-29 06:00:00 23 10 Norte 13 Norte 0 1015.7 -0.5 83
2017-07-29 05:00:00 23.5 9 Norte 17 Norte 0 1015.9 -0.4 83
2017-07-29 04:00:00 23.9 11 Norte 15 Norte 0 1015.9 -0.6 82
2017-07-29 03:00:00 24.1 12 Norte 15 Norte 0 1016.2 -0.2 81
2017-07-29 02:00:00 25.2 11 Este 15 Este 0 1016.3 -0.1 80
2017-07-29 01:00:00 25.6 11 Nordeste 18 Nordeste 0 1016.5 0.5 78
2017-07-29 00:00:00 25.8 14 Este 22 Este 0 1016.4 1 79
2017-07-28 23:00:00 26.1 20 Este 30 Nordeste 0 1016.4 1.2 79
2017-07-28 22:00:00 26.4 16 Este 21 Nordeste 0 1016 0.9 79
2017-07-28 21:00:00 26.4 13 Este 17 Este 0 1015.4 0.1 77
2017-07-28 20:00:00 27.1 11 Este 22 Este 0 1015.2 -0.4 73
2017-07-28 19:00:00 27.6 14 Sudeste 26 Este 0 1015.1 -0.8 67
2017-07-28 18:00:00 27.9 19 Este 30 Sudeste 0 1015.3 -1 63
2017-07-28 17:00:00 28.4 18 Sudeste 30 Sudeste 0 1015.6 -1.1 61
2017-07-28 16:00:00 29 19 Sudeste 30 Este 0 1015.9 -0.5 59
2017-07-28 15:00:00 28.8 21 Sudeste 41 Sudeste 0 1016.3 -0.1 61
2017-07-28 14:00:00 28.9 20 Sudeste 30 Sudeste 0 1016.7 0.6 61
2017-07-28 13:00:00 29.1 16 Sudeste 26 Sudeste 0 1016.4 0.2 68
2017-07-28 12:00:00 28.9 14 Sudeste 24 Sudeste 0 1016.4 0.6 70
2017-07-28 11:00:00 29.6 12 Sudeste 21 Sudeste 0 1016.1 0.8 62
2017-07-28 10:00:00 28.8 10 Sudeste 17 Sudeste 0 1016.2 1.4 68
2017-07-28 09:00:00 27 6 Nordeste 15 Norte 0 1015.8 1.4 76
2017-07-28 08:00:00 24.8 10 Norte 15 Norte 0 1015.3 1.2 83
2017-07-28 07:00:00 23.9 9 Norte 15 Norte 0 1014.8 0.8 84
2017-07-28 06:00:00 24.1 10 Norte 13 Norte 0 1014.4 0.2 83
2017-07-28 05:00:00 23.7 7 Norte 13 Norte 0 1014.1 -0.1 82
2017-07-28 04:00:00 23.9 7 Norte 9 Norte 0 1014 -0.3 83
2017-07-28 03:00:00 24.7 7 Norte 13 Nordeste 0 1014.2 0.1 81
2017-07-28 02:00:00 25.4 0 Calma 4 Noroeste 0 1014.2 0.5 85
2017-07-28 01:00:00 25.5 2 Noroeste 11 Sudoeste 0 1014.3 1.2 84
2017-07-28 00:00:00 25.9 7 Oeste 11 Sudoeste 0 1014.1 1.9 88
2017-07-27 23:00:00 26.4 9 Sudoeste 17 Oeste 0 1013.7 1.8 86
2017-07-27 22:00:00 26.4 14 Oeste 26 Oeste 0 1013.1 1.1 84
2017-07-27 21:00:00 27.1 19 Oeste 35 Oeste 0 1012.2 0 81
2017-07-27 20:00:00 27.9 24 Sudoeste 37 Sudoeste 0 1011.9 -0.7 78
2017-07-27 19:00:00 28.4 25 Sudoeste 37 Sudoeste 0 1012 -0.9 76
2017-07-27 18:00:00 29.1 26 Sudoeste 37 Sudoeste 0 1012.2 -1.1 74
2017-07-27 17:00:00 28.8 24 Sudoeste 33 Sudoeste 0 1012.6 -1 75
2017-07-27 16:00:00 29.1 26 Sudoeste 33 Sudoeste 0 1012.9 -1.2 71
2017-07-27 15:00:00 29.2 22 Sudoeste 35 Sudoeste 0 1013.3 -1 68
2017-07-27 14:00:00 29.1 23 Sudoeste 35 Sudoeste 0 1013.6 -0.8 66
2017-07-27 13:00:00 28.4 20 Sudoeste 32 Sudoeste 0 1014.1 -0.7 66
2017-07-27 12:00:00 27.5 15 Sur 22 Sur 0 1014.3 -0.6 66
2017-07-27 11:00:00 27.6 13 Sur 24 Sur 0 1014.4 0.1 63
2017-07-27 10:00:00 27.3 5 Oeste 17 Norte 0 1014.8 0.7 60
2017-07-27 09:00:00 24.1 14 Norte 21 Norte 0 1014.9 0.8 64
2017-07-27 08:00:00 22 15 Norte 21 Norte 0 1014.3 0.3 71
2017-07-27 07:00:00 20.7 14 Norte 17 Norte 0 1014.1 -0.1 74
2017-07-27 06:00:00 21 11 Norte 17 Norte 0 1014.1 -0.5 72
2017-07-27 05:00:00 21 9 Norte 11 Norte 0 1014 -0.4 72
2017-07-27 04:00:00 21.3 10 Norte 15 Norte 0 1014.2 -0.4 70
2017-07-27 03:00:00 21.9 7 Norte 15 Norte 0 1014.6 -0.2 69
2017-07-27 02:00:00 22.5 8 Norte 15 Nordeste 0 1014.4 -0.1 66
2017-07-27 01:00:00 23.1 4 Noroeste 8 Norte 0 1014.6 0.6 66
2017-07-27 00:00:00 23.7 6 Noroeste 8 Noroeste 0 1014.8 1.4 63
2017-07-26 23:00:00 24.5 5 Oeste 9 Sudoeste 0 1014.5 1.4 63
2017-07-26 22:00:00 24.6 5 Oeste 11 Sudoeste 0 1014 1.1 62
2017-07-26 21:00:00 25.6 9 Sudoeste 15 Sudoeste 0 1013.4 0.2 57
2017-07-26 20:00:00 26.5 10 Sudoeste 22 Sudoeste 0 1013.1 -0.1 47
2017-07-26 19:00:00 26.9 14 Sur 26 Sudoeste 0 1012.9 -0.6 48
2017-07-26 18:00:00 26.9 14 Sur 30 Sur 0 1013.2 -0.6 53
2017-07-26 17:00:00 27.1 17 Sur 28 Sur 0 1013.2 -0.7 55
2017-07-26 16:00:00 26.8 17 Sur 30 Sur 0 1013.5 -0.7 58
2017-07-26 15:00:00 26.1 20 Sur 30 Sur 0 1013.8 -0.5 58
2017-07-26 14:00:00 26.2 18 Sudeste 28 Sudeste 0 1013.9 -0.3 58
2017-07-26 13:00:00 26.2 14 Sur 22 Sur 0 1014.2 0 58
2017-07-26 12:00:00 25.8 12 Sudeste 22 Sudeste 0 1014.3 0.3 57
2017-07-26 11:00:00 25.4 14 Norte 28 Norte 0 1014.2 0.6 48
2017-07-26 10:00:00 23.6 20 Norte 32 Norte 0 1014.2 0.9 47
2017-07-26 09:00:00 22.1 21 Norte 46 Nordeste 0 1014 1.1 50
2017-07-26 08:00:00 21.4 21 Norte 42 Norte 0 1013.6 0.8 53
2017-07-26 07:00:00 21.3 15 Norte 24 Norte 0 1013.3 0.6 54
2017-07-26 06:00:00 21.4 14 Norte 24 Norte 0 1012.9 0 54
2017-07-26 05:00:00 22.4 17 Norte 24 Norte 0 1012.8 -0.2 62
2017-07-26 04:00:00 22.3 10 Norte 17 Norte 0 1012.7 -0.5 79
2017-07-26 03:00:00 22.9 13 Norte 24 Nordeste 0 1012.9 -0.4 77
2017-07-26 02:00:00 23.7 13 Nordeste 22 Nordeste 0 1013 -0.4 77
2017-07-26 01:00:00 25 9 Oeste 18 Sudeste 0 1013.2 0.2 74
2017-07-26 00:00:00 25 12 Sur 30 Sur 0 1013.3 0.4 71
2017-07-25 23:00:00 25.4 16 Sur 32 Sur 0 1013.4 0.6 68
2017-07-25 22:00:00 25.5 19 Sur 32 Sudeste 0 1013 0.4 67
2017-07-25 21:00:00 25.5 15 Sur 28 Sur 0 1012.9 -0.1 65
2017-07-25 20:00:00 25.6 17 Sur 30 Sur 0 1012.8 -0.4 65
2017-07-25 19:00:00 27 19 Sur 33 Sur 0 1012.6 -1 60
2017-07-25 18:00:00 27 20 Sudoeste 33 Sudoeste 0 1013 -0.9 62
2017-07-25 17:00:00 27.1 25 Sudoeste 37 Sudoeste 0 1013.2 -0.9 60
2017-07-25 16:00:00 27 28 Sudoeste 39 Sudoeste 0 1013.6 -0.7 57
2017-07-25 15:00:00 27.4 26 Sudoeste 35 Sudoeste 0 1013.9 -0.9 55
2017-07-25 14:00:00 27.3 20 Sur 32 Sudoeste 0 1014.1 -0.7 55
2017-07-25 13:00:00 26.9 18 Sur 24 Sur 0 1014.3 -0.6 55
2017-07-25 12:00:00 26.1 7 Oeste 28 Norte 0 1014.8 0 52
2017-07-25 11:00:00 24.6 14 Norte 26 Norte 0 1014.8 0.2 51
2017-07-25 10:00:00 22.7 18 Norte 30 Norte 0 1014.9 0.3 55
2017-07-25 09:00:00 22.3 21 Norte 32 Norte 0 1014.8 0.4 57
2017-07-25 08:00:00 22.1 20 Norte 30 Norte 0 1014.6 0.1 57
2017-07-25 07:00:00 22.3 15 Norte 24 Norte 0 1014.6 0 56
2017-07-25 06:00:00 22.4 15 Norte 22 Norte 0 1014.4 -0.5 63
2017-07-25 05:00:00 23.6 17 Norte 24 Norte 0 1014.5 -0.7 69
2017-07-25 04:00:00 24.7 14 Este 33 Este 0 1014.6 -1 65
2017-07-25 03:00:00 25.4 22 Sudeste 33 Este 0 1014.9 -0.3 71
2017-07-25 02:00:00 25.3 26 Este 33 Este 0 1015.2 0.2 75
2017-07-25 01:00:00 25.5 22 Este 28 Este 0 1015.6 1.5 77
2017-07-25 00:00:00 25.5 24 Este 33 Este 0 1015.2 1.5 75
2017-07-24 23:00:00 25.5 26 Este 35 Este 0 1015 1.9 74
2017-07-24 22:00:00 26 29 Este 35 Este 0 1014.1 1.5 73
2017-07-24 21:00:00 26.4 26 Este 35 Nordeste 0 1013.7 1.1 66
2017-07-24 20:00:00 27 26 Este 39 Este 0 1013.1 0.5 65
2017-07-24 19:00:00 28 29 Este 41 Este 0 1012.6 -0.6 56
2017-07-24 18:00:00 28.6 28 Este 35 Este 0 1012.6 -1.1 55
2017-07-24 17:00:00 29.2 18 Sudeste 28 Este 0 1012.6 -1.3 53
2017-07-24 16:00:00 29 19 Sudeste 26 Sudeste 0 1013.2 -1.2 49
2017-07-24 15:00:00 28.6 16 Sur 26 Sudoeste 0 1013.7 -0.9 52
2017-07-24 14:00:00 28 18 Sudoeste 28 Sudoeste 0 1013.9 -0.8 53
2017-07-24 13:00:00 27.3 18 Sudoeste 26 Sudoeste 0 1014.4 -0.5 62
2017-07-24 12:00:00 27.6 15 Sur 22 Sur 0 1014.6 -0.3 51
2017-07-24 11:00:00 26.8 5 Norte 21 Norte 0 1014.7 0 49
2017-07-24 10:00:00 25.6 16 Norte 22 Norte 0 1014.9 0.2 53
2017-07-24 09:00:00 23.6 12 Norte 17 Norte 0 1014.9 0 66
2017-07-24 08:00:00 22.1 9 Norte 13 Norte 0 1014.7 -0.2 81
2017-07-24 07:00:00 20.6 11 Norte 18 Norte 0 1014.7 -0.6 87
2017-07-24 06:00:00 20.9 14 Norte 18 Norte 0 1014.9 -1.1 88
2017-07-24 05:00:00 21 12 Norte 32 Norte 0 1014.9 -1.6 89
2017-07-24 04:00:00 20.9 14 Norte 45 Norte 0 1015.3 -1.9 91
2017-07-24 03:00:00 21.2 11 Norte 18 Norte 0 1016 -1.3 91
2017-07-24 02:00:00 21.1 14 Norte 22 Norte 0.2 1016.5 -0.6 93
2017-07-24 01:00:00 21.6 11 Norte 18 Norte 0 1017.2 1.1 92
2017-07-24 00:00:00 21.8 5 Norte 37 Nordeste 0 1017.3 2.2 93
2017-07-23 23:00:00 21.9 14 Norte 18 Norte 0.2 1017.1 2.3 91
2017-07-23 22:00:00 22.1 13 Nordeste 17 Nordeste 0 1016.1 -1.7 89
2017-07-23 21:00:00 22.6 10 Oeste 18 Nordeste 0 1015.1 -1.6 88
2017-07-23 20:00:00 21.5 13 Este 33 Oeste 0.7 1014.8 -2.3 87
2017-07-23 19:00:00 24.3 36 Oeste 67 Oeste 1.8 1017.8 0.6 73
2017-07-23 18:00:00 26.5 12 Sudeste 18 Sudeste 0 1016.7 -1 65
2017-07-23 17:00:00 26.5 12 Sudeste 24 Este 0 1017.1 -1.1 63
2017-07-23 16:00:00 27.2 18 Sudeste 30 Sudeste 0 1017.2 -1.4 62
2017-07-23 15:00:00 27 16 Sudeste 26 Sudeste 0 1017.7 -0.9 61
2017-07-23 14:00:00 28 19 Sudeste 28 Sudeste 0 1018.2 -0.2 56
2017-07-23 13:00:00 28.2 17 Sudeste 26 Sudeste 0 1018.6 0.6 61
2017-07-23 12:00:00 27.9 11 Sudeste 21 Sudeste 0 1018.6 1.1 65
2017-07-23 11:00:00 27.3 13 Sudeste 22 Este 0 1018.4 1.3 62
2017-07-23 10:00:00 28.3 11 Sudeste 21 Norte 0 1018 0.8 63
2017-07-23 09:00:00 27.6 8 Nordeste 26 Nordeste 0 1017.5 0.7 64
2017-07-23 08:00:00 26.4 14 Nordeste 22 Norte 0 1017.1 0.6 70
2017-07-23 07:00:00 25.9 17 Este 24 Este 0 1017.2 0.9 73
2017-07-23 06:00:00 25.8 21 Este 30 Este 0 1016.8 0.5 75
2017-07-23 05:00:00 26 19 Este 26 Nordeste 0 1016.5 0.3 82
2017-07-23 04:00:00 25.5 9 Norte 11 Norte 0 1016.3 0.1 72
2017-07-23 03:00:00 25.5 9 Norte 13 Norte 0 1016.3 0.4 73
2017-07-23 02:00:00 26.3 4 Norte 11 Nordeste 0 1016.2 0.7 78
2017-07-23 01:00:00 26 3 Oeste 11 Sudoeste 0 1016.2 1.5 78
2017-07-23 00:00:00 26.3 9 Oeste 17 Sudoeste 0 1015.9 2.2 79